Time;durP1;ratioP1;P1;durP2;ratioP2;P2;SDS_P1;SDS_P2;PMS_P1;PMS_P2;Temp;Humidity;BMP_temperature;BMP_pressure;BME280_temperature;BME280_humidity;BME280_pressure;Samples;Min_cycle;Max_cycle;Signal;HPM_P1;HPM_P2
2022/01/20 06:35:19;;;;;;;1.63;1.40;;;4.00;98.20;;;;;;5044844;28;20517;-70
2022/01/20 06:37:54;;;;;;;1.70;1.47;;;4.00;98.20;;;;;;5046351;28;20516;-70
2022/01/20 06:40:21;;;;;;;1.70;1.40;;;3.90;98.20;;;;;;5031789;28;20458;-70
2022/01/20 06:42:48;;;;;;;1.67;1.43;;;3.90;98.20;;;;;;5030474;28;20814;-70
2022/01/20 06:45:17;;;;;;;1.70;1.40;;;3.90;98.20;;;;;;5044797;28;20828;-70
2022/01/20 06:47:44;;;;;;;1.60;1.40;;;3.80;98.20;;;;;;5043581;28;20524;-71
2022/01/20 06:50:12;;;;;;;1.70;1.50;;;3.80;98.20;;;;;;5039352;28;20831;-70
2022/01/20 06:52:42;;;;;;;1.70;1.43;;;3.80;98.20;;;;;;5050451;28;20476;-70
2022/01/20 06:55:10;;;;;;;1.67;1.30;;;3.70;98.20;;;;;;5047790;28;20553;-70
2022/01/20 06:57:39;;;;;;;1.70;1.60;;;3.70;98.20;;;;;;5051650;28;20487;-69
2022/01/20 07:00:07;;;;;;;1.67;1.37;;;3.70;98.20;;;;;;5048428;28;20489;-70
2022/01/20 07:02:34;;;;;;;1.67;1.40;;;3.70;98.20;;;;;;5029727;28;20502;-71
2022/01/20 07:05:01;;;;;;;1.60;1.40;;;3.70;98.20;;;;;;5044000;28;20462;-70
2022/01/20 07:07:29;;;;;;;1.60;1.40;;;3.80;98.20;;;;;;5054494;28;20520;-70
2022/01/20 07:09:57;;;;;;;1.70;1.50;;;3.80;98.20;;;;;;5046491;28;20546;-70
2022/01/20 07:12:25;;;;;;;1.63;1.40;;;3.80;98.20;;;;;;5020701;28;20530;-70
2022/01/20 07:14:53;;;;;;;1.80;1.70;;;3.80;98.20;;;;;;5042342;28;20520;-70
2022/01/20 07:17:20;;;;;;;1.67;1.40;;;3.80;98.20;;;;;;5042115;28;20994;-70
2022/01/20 07:19:48;;;;;;;1.67;1.40;;;3.80;98.20;;;;;;5052557;28;20825;-69
2022/01/20 07:22:18;;;;;;;1.63;1.43;;;3.80;98.20;;;;;;5050114;28;20906;-70
2022/01/20 07:24:47;;;;;;;1.63;1.40;;;3.80;98.20;;;;;;5041983;28;20459;-70
2022/01/20 07:27:18;;;;;;;1.63;1.37;;;3.80;98.20;;;;;;5038563;28;20482;-70
2022/01/20 07:29:45;;;;;;;1.60;1.40;;;3.80;98.20;;;;;;5038656;28;20463;-69
2022/01/20 07:32:13;;;;;;;1.67;1.40;;;3.80;98.20;;;;;;5037480;28;20485;-70
2022/01/20 07:34:40;;;;;;;1.60;1.40;;;3.80;98.20;;;;;;5045922;28;20894;-70
2022/01/20 07:37:07;;;;;;;1.63;1.50;;;3.80;98.20;;;;;;5037420;28;20509;-70
2022/01/20 07:39:34;;;;;;;1.63;1.40;;;3.80;98.20;;;;;;5036036;28;20467;-70
2022/01/20 07:42:01;;;;;;;1.63;1.47;;;3.80;98.20;;;;;;5030040;28;20553;-70
2022/01/20 07:44:29;;;;;;;1.70;1.50;;;3.80;98.20;;;;;;5030467;28;20827;-70
2022/01/20 07:46:55;;;;;;;1.67;1.37;;;3.90;98.20;;;;;;5031241;28;20494;-70
2022/01/20 07:49:22;;;;;;;1.60;1.40;;;3.80;98.20;;;;;;5034917;28;20487;-71
2022/01/20 07:51:49;;;;;;;1.60;1.40;;;3.80;98.20;;;;;;5030359;28;20528;-70
2022/01/20 07:54:16;;;;;;;1.70;1.50;;;3.80;98.20;;;;;;5044492;28;20463;-71
2022/01/20 07:56:43;;;;;;;1.60;1.30;;;3.80;98.20;;;;;;5030579;28;20924;-71
2022/01/20 07:59:09;;;;;;;1.63;1.40;;;3.80;98.20;;;;;;5041807;28;20505;-70
2022/01/20 08:01:38;;;;;;;1.67;1.40;;;3.90;98.20;;;;;;5030745;28;21148;-70
2022/01/20 08:04:04;;;;;;;1.63;1.37;;;3.80;98.20;;;;;;5036495;28;20847;-71
2022/01/20 08:06:31;;;;;;;1.63;1.40;;;3.80;98.20;;;;;;5028503;28;20489;-71
2022/01/20 08:08:58;;;;;;;1.63;1.40;;;3.70;98.20;;;;;;5045755;28;20494;-71
2022/01/20 08:11:25;;;;;;;1.70;1.60;;;3.70;98.20;;;;;;5037428;28;20481;-71
2022/01/20 08:13:52;;;;;;;1.60;1.40;;;3.70;98.20;;;;;;5047688;28;20489;-71
2022/01/20 08:16:19;;;;;;;1.60;1.40;;;3.70;98.20;;;;;;5035186;28;20531;-70
2022/01/20 08:18:47;;;;;;;1.60;1.40;;;3.70;98.20;;;;;;5041411;28;20489;-71
2022/01/20 08:21:14;;;;;;;1.67;1.50;;;3.70;98.20;;;;;;5036546;28;20563;-71
2022/01/20 08:23:41;;;;;;;1.67;1.40;;;3.70;98.20;;;;;;5056879;28;20838;-71
2022/01/20 08:26:07;;;;;;;1.70;1.60;;;3.80;98.20;;;;;;5030184;28;20913;-71
2022/01/20 08:28:34;;;;;;;1.70;1.50;;;3.80;98.20;;;;;;5057525;28;20489;-71
2022/01/20 08:31:01;;;;;;;1.60;1.40;;;3.80;98.20;;;;;;5035295;28;20466;-71
2022/01/20 08:33:28;;;;;;;1.63;1.40;;;3.80;98.20;;;;;;5040846;28;20490;-71
2022/01/20 08:35:56;;;;;;;1.60;1.40;;;3.90;98.20;;;;;;5027838;28;21313;-71
2022/01/20 08:38:23;;;;;;;1.63;1.40;;;3.90;98.20;;;;;;5053503;28;20493;-72
2022/01/20 08:40:50;;;;;;;1.60;1.40;;;4.00;98.20;;;;;;5031940;28;20465;-71
2022/01/20 08:43:16;;;;;;;1.63;1.40;;;4.10;98.20;;;;;;5059944;28;20454;-71
2022/01/20 08:45:46;;;;;;;1.70;1.40;;;4.10;98.20;;;;;;5042858;28;20560;-71
2022/01/20 08:48:13;;;;;;;1.60;1.40;;;4.10;98.20;;;;;;5033397;28;20958;-71
2022/01/20 08:50:41;;;;;;;1.70;1.50;;;4.10;98.20;;;;;;5032846;28;20469;-71
2022/01/20 08:53:11;;;;;;;1.67;1.40;;;4.10;98.20;;;;;;5041915;28;20574;-71
2022/01/20 08:55:38;;;;;;;1.70;1.40;;;4.00;98.20;;;;;;5033982;28;20821;-73
2022/01/20 08:58:06;;;;;;;1.67;1.50;;;4.00;98.20;;;;;;5035424;28;20525;-71
2022/01/20 09:00:35;;;;;;;1.70;1.43;;;4.00;98.20;;;;;;5034505;28;20470;-72
2022/01/20 09:03:02;;;;;;;1.63;1.40;;;4.00;98.20;;;;;;5038391;28;20477;-73
2022/01/20 09:05:32;;;;;;;1.63;1.40;;;4.10;98.20;;;;;;5032370;28;20581;-73
2022/01/20 09:07:59;;;;;;;1.70;1.43;;;4.30;98.20;;;;;;5021672;28;20482;-72
2022/01/20 09:10:36;;;;;;;1.60;1.30;;;4.40;98.20;;;;;;5032621;28;20466;-73
2022/01/20 09:15:49;;;;;;;1.70;1.47;;;4.50;98.20;;;;;;5020975;28;20517;-72
2022/01/20 09:18:18;;;;;;;1.63;1.40;;;4.60;98.20;;;;;;5034212;28;20569;-73
2022/01/20 09:20:45;;;;;;;1.60;1.40;;;4.50;98.20;;;;;;5027301;28;20462;-73
2022/01/20 09:23:12;;;;;;;1.70;1.50;;;4.50;98.20;;;;;;5028293;28;20477;-72
2022/01/20 09:25:42;;;;;;;1.60;1.30;;;4.60;98.20;;;;;;5040100;28;20465;-71
2022/01/20 09:28:09;;;;;;;1.60;1.30;;;4.60;98.20;;;;;;5042357;28;20486;-72
2022/01/20 09:30:40;;;;;;;1.63;1.40;;;4.60;98.20;;;;;;5036670;28;20469;-72
2022/01/20 09:33:16;;;;;;;1.70;1.50;;;4.60;98.20;;;;;;5028339;28;20491;-70
2022/01/20 09:35:44;;;;;;;1.60;1.40;;;4.70;98.20;;;;;;5038803;28;20466;-72
2022/01/20 09:38:12;;;;;;;1.70;1.40;;;4.70;98.20;;;;;;5024117;28;20810;-72
2022/01/20 09:40:41;;;;;;;1.63;1.40;;;4.70;98.20;;;;;;5037394;28;20577;-76
2022/01/20 09:43:10;;;;;;;1.70;1.40;;;4.70;98.20;;;;;;5039830;28;20485;-71
2022/01/20 09:45:38;;;;;;;1.67;1.40;;;4.60;98.20;;;;;;5036964;28;20498;-73
2022/01/20 09:48:06;;;;;;;1.60;1.40;;;4.60;98.20;;;;;;5039856;28;20491;-73
2022/01/20 09:50:33;;;;;;;1.70;1.50;;;4.70;98.20;;;;;;5038827;28;20466;-72
2022/01/20 09:53:01;;;;;;;1.67;1.30;;;4.80;98.20;;;;;;5041453;28;20484;-71
2022/01/20 09:55:30;;;;;;;1.60;1.30;;;4.80;98.20;;;;;;5039088;28;20549;-72
2022/01/20 09:57:58;;;;;;;1.70;1.40;;;4.80;98.20;;;;;;5044778;28;20852;-72
2022/01/20 10:00:25;;;;;;;1.67;1.33;;;4.80;98.20;;;;;;5031853;28;21060;-72
2022/01/20 10:02:55;;;;;;;1.70;1.60;;;4.70;98.20;;;;;;5027563;28;20487;-72
2022/01/20 10:05:27;;;;;;;1.67;1.33;;;4.70;98.20;;;;;;5035369;28;20882;-71
2022/01/20 10:07:55;;;;;;;1.67;1.40;;;4.80;98.20;;;;;;5043001;28;20660;-71
2022/01/20 10:10:21;;;;;;;1.67;1.40;;;4.90;98.20;;;;;;5036047;28;20470;-71
2022/01/20 10:12:48;;;;;;;1.60;1.30;;;5.00;98.20;;;;;;5028492;28;20492;-71
2022/01/20 10:15:16;;;;;;;1.67;1.30;;;5.10;98.20;;;;;;5034122;28;20906;-70
2022/01/20 10:17:43;;;;;;;1.70;1.40;;;5.10;98.20;;;;;;5039205;28;20573;-70
2022/01/20 10:20:10;;;;;;;1.60;1.33;;;5.10;98.20;;;;;;5039321;28;20885;-70
2022/01/20 10:22:38;;;;;;;1.63;1.33;;;5.10;98.20;;;;;;5044063;28;20482;-72
2022/01/20 10:25:08;;;;;;;1.70;1.43;;;5.10;98.20;;;;;;5042032;28;20565;-71
2022/01/20 10:27:46;;;;;;;1.67;1.43;;;5.00;98.20;;;;;;5038811;28;20513;-71
2022/01/20 10:30:13;;;;;;;1.70;1.50;;;4.90;98.20;;;;;;5030999;28;20565;-71
2022/01/20 10:32:44;;;;;;;1.60;1.30;;;5.00;98.20;;;;;;5022811;28;20878;-71
2022/01/20 10:35:12;;;;;;;1.60;1.30;;;4.90;98.20;;;;;;5034056;28;20474;-71
2022/01/20 10:37:40;;;;;;;1.70;1.50;;;4.90;98.20;;;;;;5038029;28;20538;-71
2022/01/20 10:40:12;;;;;;;1.70;1.40;;;4.90;98.20;;;;;;5039802;28;20920;-71
2022/01/20 10:42:42;;;;;;;1.60;1.30;;;4.90;98.20;;;;;;5030601;28;21079;-71
2022/01/20 10:45:20;;;;;;;1.60;1.40;;;4.90;98.20;;;;;;5032143;28;20465;-71
2022/01/20 10:47:51;;;;;;;1.63;1.40;;;4.90;98.20;;;;;;5043240;28;20482;-71
2022/01/20 10:50:22;;;;;;;1.60;1.30;;;4.90;98.20;;;;;;5029800;28;20834;-71
2022/01/20 10:52:50;;;;;;;1.63;1.30;;;4.90;98.20;;;;;;5040168;28;20490;-71
2022/01/20 10:55:24;;;;;;;1.63;1.40;;;5.00;98.20;;;;;;5037682;28;20489;-70
2022/01/20 10:57:52;;;;;;;1.70;1.37;;;5.00;98.20;;;;;;5037703;28;20494;-70
2022/01/20 11:00:20;;;;;;;1.63;1.30;;;5.10;98.20;;;;;;5032910;28;20463;-71
2022/01/20 16:40:55;;;;;;;1.70;1.50;;;3.80;98.20;;;;;;4966181;23;21262;-77
2022/01/20 16:43:36;;;;;;;1.70;1.50;;;3.70;98.20;;;;;;4977052;28;20466;-75
2022/01/20 16:46:09;;;;;;;1.70;1.40;;;3.70;98.20;;;;;;4965067;28;21068;-75
2022/01/20 16:48:43;;;;;;;1.60;1.40;;;3.70;98.20;;;;;;4977078;28;20489;-75
2022/01/20 16:54:47;;;;;;;;;;;;;;;;;;;;;
2022/01/20 16:57:29;;;;;;;1.67;1.47;;;3.60;98.20;;;;;;4962691;28;20489;-76
2022/01/20 17:00:29;;;;;;;1.70;1.50;;;3.50;98.20;;;;;;4966282;28;20585;-76
2022/01/20 17:03:12;;;;;;;1.70;1.40;;;3.50;98.20;;;;;;4952669;28;20485;-73
2022/01/20 17:05:44;;;;;;;1.70;1.50;;;3.50;98.20;;;;;;4964603;28;20485;-74
2022/01/20 17:08:15;;;;;;;1.70;1.40;;;3.40;98.20;;;;;;4971291;28;20495;-73
2022/01/20 17:10:51;;;;;;;1.67;1.40;;;3.40;98.20;;;;;;4963606;28;20473;-73
2022/01/20 17:13:23;;;;;;;1.70;1.50;;;3.40;98.20;;;;;;4949987;28;20481;-76
2022/01/20 17:18:45;;;;;;;1.70;1.50;;;3.30;98.20;;;;;;4974423;28;20698;-76
2022/01/20 17:21:16;;;;;;;1.70;1.40;;;3.20;98.20;;;;;;4954579;28;20492;-76
2022/01/20 17:23:52;;;;;;;1.70;1.53;;;3.20;98.20;;;;;;4966847;28;20462;-75
2022/01/20 17:26:35;;;;;;;1.70;1.40;;;3.10;98.20;;;;;;4952977;28;20485;-76
2022/01/20 17:29:17;;;;;;;1.60;1.40;;;3.10;98.20;;;;;;4973453;28;20484;-75
2022/01/20 17:31:59;;;;;;;1.70;1.40;;;3.00;98.20;;;;;;4957521;28;20480;-75
2022/01/20 17:34:29;;;;;;;1.70;1.50;;;3.00;98.20;;;;;;4966620;28;21023;-74
2022/01/20 17:37:04;;;;;;;1.70;1.60;;;2.90;98.20;;;;;;4962649;28;20583;-77
2022/01/20 17:39:46;;;;;;;1.60;1.40;;;2.90;98.20;;;;;;4970483;28;20497;-74
2022/01/20 17:42:18;;;;;;;1.63;1.40;;;2.90;98.20;;;;;;4959122;28;21280;-76
2022/01/20 17:44:52;;;;;;;1.70;1.50;;;2.80;98.20;;;;;;4968729;28;20492;-76
2022/01/20 17:47:25;;;;;;;1.70;1.57;;;2.80;98.20;;;;;;4962839;28;20497;-75
2022/01/20 17:53:21;;;;;;;1.77;1.67;;;2.70;98.20;;;;;;4946951;28;20477;-73
2022/01/20 17:55:56;;;;;;;1.67;1.40;;;2.70;98.20;;;;;;4961346;28;20545;-75
2022/01/20 17:58:23;;;;;;;1.70;1.50;;;2.70;98.20;;;;;;4972813;28;20997;-75
2022/01/20 18:01:01;;;;;;;1.70;1.60;;;2.70;98.20;;;;;;4957716;28;20752;-76
2022/01/20 18:03:29;;;;;;;1.70;1.50;;;2.70;98.20;;;;;;4971244;28;20772;-74
2022/01/20 18:05:56;;;;;;;1.70;1.50;;;2.60;98.20;;;;;;4957755;28;20470;-73
2022/01/20 18:08:25;;;;;;;1.70;1.50;;;2.60;98.20;;;;;;4980563;28;20740;-75
2022/01/20 18:10:55;;;;;;;1.80;1.70;;;2.60;98.20;;;;;;4956529;28;20470;-75
2022/01/20 18:13:27;;;;;;;1.70;1.60;;;2.60;98.20;;;;;;4973535;28;20465;-73
2022/01/20 18:15:54;;;;;;;1.73;1.63;;;2.50;98.20;;;;;;4960228;28;20466;-74
2022/01/20 18:18:26;;;;;;;1.70;1.60;;;2.50;98.20;;;;;;4971300;28;20470;-73
2022/01/20 18:20:53;;;;;;;1.70;1.50;;;2.50;98.20;;;;;;4958142;28;20589;-76
2022/01/20 18:23:35;;;;;;;1.70;1.50;;;2.50;98.20;;;;;;4974333;28;20466;-74
2022/01/20 18:26:03;;;;;;;1.70;1.50;;;2.50;98.20;;;;;;4957708;28;20753;-76
2022/01/20 18:28:36;;;;;;;1.87;1.77;;;2.50;98.20;;;;;;4976336;28;20497;-74
2022/01/20 18:31:03;;;;;;;1.70;1.60;;;2.50;98.20;;;;;;4957533;28;20468;-75
2022/01/20 18:33:32;;;;;;;1.67;1.50;;;2.50;98.20;;;;;;4979913;28;20825;-76
2022/01/20 18:35:59;;;;;;;1.63;1.40;;;2.50;98.20;;;;;;4958134;28;20468;-77
2022/01/20 18:38:26;;;;;;;1.60;1.50;;;2.50;98.20;;;;;;4980532;28;20465;-71
2022/01/20 18:40:53;;;;;;;1.70;1.60;;;2.50;98.20;;;;;;4955239;28;20474;-73
2022/01/20 18:43:21;;;;;;;1.70;1.50;;;2.50;98.20;;;;;;4970479;28;20866;-74
2022/01/20 18:45:48;;;;;;;1.70;1.50;;;2.50;98.20;;;;;;4961253;28;20462;-74
2022/01/20 18:48:15;;;;;;;1.63;1.40;;;2.50;98.20;;;;;;4974502;28;20481;-74
2022/01/20 18:50:44;;;;;;;1.70;1.60;;;2.40;98.20;;;;;;4966279;28;20973;-74
2022/01/20 18:53:12;;;;;;;1.80;1.70;;;2.40;98.20;;;;;;4962204;28;20572;-73
2022/01/20 18:55:39;;;;;;;1.70;1.50;;;2.40;98.20;;;;;;4966558;28;21159;-75
2022/01/20 18:58:10;;;;;;;1.70;1.50;;;2.40;98.20;;;;;;4959254;28;20992;-74
2022/01/20 19:00:38;;;;;;;1.67;1.43;;;2.40;98.20;;;;;;4966583;28;20490;-74
2022/01/20 19:03:13;;;;;;;1.80;1.70;;;2.30;98.20;;;;;;4964000;28;20827;-72
2022/01/20 19:05:58;;;;;;;1.70;1.53;;;2.30;98.20;;;;;;4967406;28;20973;-75
2022/01/20 19:08:26;;;;;;;1.67;1.50;;;2.30;98.20;;;;;;4958106;28;20571;-73
2022/01/20 19:10:54;;;;;;;1.63;1.50;;;2.20;98.20;;;;;;4956139;28;20839;-75
2022/01/20 19:13:21;;;;;;;1.70;1.50;;;2.20;98.20;;;;;;4975911;28;20473;-74
2022/01/20 19:15:50;;;;;;;1.70;1.57;;;2.20;98.20;;;;;;4968796;28;21061;-73
2022/01/20 19:18:17;;;;;;;1.60;1.50;;;2.20;98.20;;;;;;4955621;28;20583;-74
2022/01/20 19:20:53;;;;;;;1.67;1.50;;;2.20;98.20;;;;;;4965408;28;20466;-73
2022/01/20 19:23:24;;;;;;;2.13;1.93;;;2.20;98.20;;;;;;4956498;28;20482;-74
2022/01/20 19:25:54;;;;;;;1.67;1.53;;;2.10;98.20;;;;;;4954751;28;20521;-74
2022/01/20 19:28:24;;;;;;;1.70;1.60;;;2.10;98.20;;;;;;4968217;28;20729;-74
2022/01/20 19:30:54;;;;;;;1.60;1.50;;;2.10;98.20;;;;;;4956257;28;20462;-75
2022/01/20 19:33:21;;;;;;;1.70;1.50;;;2.10;98.20;;;;;;4978179;28;20793;-74
2022/01/20 19:35:56;;;;;;;1.70;1.60;;;2.10;98.20;;;;;;4957501;28;20494;-78
2022/01/20 19:38:27;;;;;;;1.70;1.60;;;2.00;98.20;;;;;;4971055;28;20465;-77
2022/01/20 19:40:56;;;;;;;1.60;1.50;;;2.00;98.20;;;;;;4955493;28;20495;-74
2022/01/20 19:43:29;;;;;;;1.80;1.70;;;2.00;98.20;;;;;;4972438;28;20477;-74
2022/01/20 19:45:55;;;;;;;3.60;2.60;;;2.00;98.20;;;;;;4960017;28;20553;-74
2022/01/20 19:48:25;;;;;;;1.70;1.60;;;2.10;98.20;;;;;;4975978;28;20458;-76
2022/01/20 19:50:57;;;;;;;1.90;1.80;;;2.10;98.20;;;;;;4956859;28;20466;-79
2022/01/20 19:53:27;;;;;;;1.70;1.60;;;2.10;98.20;;;;;;4971335;28;20466;-77
2022/01/20 19:55:55;;;;;;;1.70;1.50;;;2.10;98.20;;;;;;4958367;28;20490;-73
2022/01/20 19:58:22;;;;;;;1.80;1.70;;;2.10;98.20;;;;;;4977587;28;20458;-73
2022/01/20 20:00:51;;;;;;;1.80;1.70;;;2.00;98.20;;;;;;4955288;28;20462;-75
2022/01/20 20:03:19;;;;;;;1.80;1.70;;;2.00;98.20;;;;;;4970162;28;20484;-74
2022/01/20 20:05:48;;;;;;;1.80;1.70;;;2.00;98.20;;;;;;4964435;28;20462;-73
2022/01/20 20:10:42;;;;;;;1.70;1.60;;;1.90;98.20;;;;;;5014135;23;21257;-73
2022/01/20 20:13:10;;;;;;;1.67;1.50;;;1.90;98.20;;;;;;4966853;28;20489;-74
2022/01/20 20:15:37;;;;;;;1.70;1.57;;;1.90;98.20;;;;;;4964452;28;20988;-74
2022/01/20 20:18:05;;;;;;;1.70;1.50;;;1.90;98.20;;;;;;4970331;28;20516;-74
2022/01/20 20:20:32;;;;;;;2.83;2.63;;;1.80;98.20;;;;;;4964767;28;20494;-74
2022/01/20 20:22:59;;;;;;;1.70;1.50;;;1.80;98.20;;;;;;4959060;28;20736;-74
2022/01/20 20:25:27;;;;;;;1.70;1.60;;;1.80;98.20;;;;;;4969008;28;20508;-74
2022/01/20 20:27:55;;;;;;;1.70;1.60;;;1.80;98.20;;;;;;4970089;28;20552;-75
2022/01/20 20:30:24;;;;;;;1.70;1.50;;;1.70;98.20;;;;;;4962954;28;20492;-72
2022/01/20 20:32:51;;;;;;;1.70;1.60;;;1.70;98.20;;;;;;4961720;28;20490;-74
2022/01/20 20:35:18;;;;;;;1.70;1.50;;;1.70;98.20;;;;;;4964863;28;20500;-73
2022/01/20 20:37:46;;;;;;;1.63;1.50;;;1.60;98.20;;;;;;4971438;28;20489;-76
2022/01/20 20:40:14;;;;;;;1.70;1.50;;;1.60;98.20;;;;;;4966723;28;20510;-74
2022/01/20 20:43:04;;;;;;;1.80;1.70;;;1.60;98.20;;;;;;4965544;28;20559;-73
2022/01/20 20:45:39;;;;;;;1.70;1.50;;;1.60;98.20;;;;;;4963913;28;20607;-74
2022/01/20 20:48:06;;;;;;;1.70;1.60;;;1.60;98.20;;;;;;4969930;28;20485;-74
2022/01/20 20:50:43;;;;;;;1.70;1.60;;;1.50;98.20;;;;;;4964139;28;20499;-75
2022/01/20 20:53:10;;;;;;;1.70;1.60;;;1.50;98.20;;;;;;4954170;28;20528;-74
2022/01/20 20:55:49;;;;;;;1.70;1.50;;;1.50;98.20;;;;;;4965724;28;20490;-77
2022/01/20 20:58:16;;;;;;;1.80;1.70;;;1.50;98.20;;;;;;4954250;28;20572;-75
2022/01/20 21:01:08;;;;;;;1.80;1.70;;;1.50;98.20;;;;;;4965912;28;20461;-73
2022/01/20 21:03:50;;;;;;;1.70;1.50;;;1.50;98.20;;;;;;4897780;29;20476;-78
2022/01/20 21:06:17;;;;;;;1.70;1.50;;;1.50;98.20;;;;;;4917506;28;20511;-75
2022/01/20 21:09:07;;;;;;;1.67;1.50;;;1.50;98.20;;;;;;4970470;28;20502;-75
2022/01/20 21:11:34;;;;;;;1.87;1.77;;;1.50;98.20;;;;;;4958335;28;20848;-73
2022/01/20 21:14:01;;;;;;;1.70;1.53;;;1.50;98.20;;;;;;4972915;28;20466;-72
2022/01/20 21:16:30;;;;;;;1.70;1.50;;;1.50;98.20;;;;;;4958743;28;20488;-73
2022/01/20 21:18:57;;;;;;;1.70;1.60;;;1.50;98.20;;;;;;4971574;28;20493;-74
2022/01/20 21:21:24;;;;;;;1.70;1.50;;;1.60;98.20;;;;;;4959978;28;20493;-73
2022/01/20 21:23:51;;;;;;;1.70;1.60;;;1.60;98.20;;;;;;4973715;28;20465;-74
2022/01/20 21:26:24;;;;;;;1.67;1.57;;;1.60;98.20;;;;;;4960986;28;20476;-73
2022/01/20 21:28:51;;;;;;;1.80;1.70;;;1.50;98.20;;;;;;4978993;28;20486;-73
2022/01/20 21:31:18;;;;;;;1.83;1.73;;;1.50;98.20;;;;;;4960071;28;20491;-73
2022/01/20 21:33:48;;;;;;;1.70;1.50;;;1.50;98.20;;;;;;4975443;28;20496;-71
2022/01/20 21:36:17;;;;;;;1.70;1.50;;;1.50;98.20;;;;;;4958923;28;20489;-73
2022/01/20 21:38:47;;;;;;;1.70;1.57;;;1.50;98.20;;;;;;4969077;28;20481;-73
2022/01/20 21:41:16;;;;;;;1.70;1.60;;;1.50;98.20;;;;;;4959287;28;20484;-73
2022/01/20 21:44:18;;;;;;;1.80;1.70;;;1.50;98.20;;;;;;4974101;28;20469;-73
2022/01/20 21:46:51;;;;;;;1.80;1.70;;;1.40;98.20;;;;;;4971086;28;20488;-73
2022/01/20 21:49:19;;;;;;;1.80;1.70;;;1.40;98.20;;;;;;4974605;28;20490;-75
2022/01/20 21:51:46;;;;;;;1.70;1.60;;;1.40;98.20;;;;;;4965173;28;21012;-73
2022/01/20 21:54:13;;;;;;;1.70;1.60;;;1.40;98.20;;;;;;4976679;28;20510;-73
2022/01/20 21:56:40;;;;;;;1.70;1.50;;;1.40;98.20;;;;;;4965135;28;20478;-73
2022/01/20 21:59:07;;;;;;;1.70;1.60;;;1.30;98.20;;;;;;4969514;28;20489;-73
2022/01/20 22:01:35;;;;;;;1.70;1.60;;;1.30;98.20;;;;;;4960057;28;20484;-74
2022/01/20 22:04:06;;;;;;;1.93;1.73;;;1.30;98.20;;;;;;4972737;28;20473;-73
2022/01/20 22:06:34;;;;;;;1.70;1.60;;;1.30;98.20;;;;;;4963317;28;20740;-73
2022/01/20 22:09:04;;;;;;;1.77;1.67;;;1.30;98.20;;;;;;4977224;28;20489;-73
2022/01/20 22:11:31;;;;;;;1.70;1.60;;;1.30;98.20;;;;;;4964222;28;20504;-74
2022/01/20 22:13:58;;;;;;;2.00;1.80;;;1.30;98.20;;;;;;4978056;28;20469;-73
2022/01/20 22:16:26;;;;;;;1.70;1.60;;;1.30;98.20;;;;;;4964775;28;20484;-74
2022/01/20 22:18:53;;;;;;;1.70;1.60;;;1.30;98.20;;;;;;4971944;28;20918;-74
2022/01/20 22:21:20;;;;;;;1.70;1.60;;;1.30;98.20;;;;;;4960036;28;20488;-73
2022/01/20 22:23:49;;;;;;;1.70;1.60;;;1.30;98.20;;;;;;4970724;28;20909;-74
2022/01/20 22:26:16;;;;;;;1.77;1.67;;;1.30;98.20;;;;;;4961021;28;20946;-73
2022/01/20 22:28:44;;;;;;;1.70;1.60;;;1.30;98.20;;;;;;4978981;28;20492;-73
2022/01/20 22:31:12;;;;;;;1.83;1.70;;;1.30;98.20;;;;;;4958794;28;20743;-73
2022/01/20 22:33:43;;;;;;;1.70;1.60;;;1.30;98.20;;;;;;4971846;28;21021;-76
2022/01/20 22:36:16;;;;;;;1.70;1.60;;;1.20;98.20;;;;;;4962697;28;20488;-75
2022/01/20 22:38:50;;;;;;;1.70;1.57;;;1.20;98.20;;;;;;4976056;28;20486;-76
2022/01/20 22:41:36;;;;;;;1.77;1.67;;;1.10;98.20;;;;;;4961937;28;20551;-76
2022/01/20 22:44:08;;;;;;;1.70;1.50;;;1.20;98.20;;;;;;4974130;28;20462;-75
2022/01/20 22:46:35;;;;;;;1.80;1.70;;;1.20;98.20;;;;;;4961818;28;20485;-75
2022/01/20 22:49:02;;;;;;;1.90;1.77;;;1.10;98.20;;;;;;4987010;23;20901;-72
2022/01/20 22:51:29;;;;;;;2.00;1.80;;;1.10;98.20;;;;;;4962180;28;20830;-71
2022/01/20 22:53:55;;;;;;;1.77;1.67;;;1.10;98.20;;;;;;4976364;28;20865;-71
2022/01/20 22:56:24;;;;;;;1.70;1.60;;;1.00;98.20;;;;;;4961144;28;20492;-72
2022/01/20 22:58:50;;;;;;;1.70;1.60;;;1.00;98.20;;;;;;4973169;28;20490;-72
2022/01/20 23:01:17;;;;;;;1.70;1.60;;;1.00;98.20;;;;;;4964523;28;20481;-71
2022/01/20 23:03:44;;;;;;;1.70;1.50;;;1.00;98.20;;;;;;4970604;28;20473;-72
2022/01/20 23:06:11;;;;;;;1.80;1.70;;;0.90;98.20;;;;;;4959522;28;21056;-71
2022/01/20 23:08:38;;;;;;;1.70;1.60;;;0.90;98.20;;;;;;4971024;28;20806;-71
2022/01/20 23:11:05;;;;;;;1.70;1.60;;;0.90;98.20;;;;;;4959118;28;21129;-71
2022/01/20 23:13:33;;;;;;;1.70;1.60;;;0.90;98.20;;;;;;4978184;28;20474;-71
2022/01/20 23:16:11;;;;;;;1.70;1.60;;;0.90;98.20;;;;;;4960412;28;20570;-71
2022/01/20 23:18:57;;;;;;;1.93;1.80;;;0.90;98.20;;;;;;4970446;28;20657;-71
2022/01/20 23:21:23;;;;;;;1.97;1.77;;;0.90;98.20;;;;;;4956670;28;21298;-71
2022/01/20 23:23:51;;;;;;;1.70;1.60;;;0.90;98.20;;;;;;4972072;28;20494;-71
2022/01/20 23:26:21;;;;;;;1.70;1.60;;;0.90;98.20;;;;;;4959072;28;20507;-71
2022/01/20 23:28:52;;;;;;;1.90;1.80;;;0.90;98.20;;;;;;4975263;28;20489;-71
2022/01/20 23:31:20;;;;;;;1.70;1.60;;;0.90;98.20;;;;;;4958275;28;20509;-71
2022/01/20 23:33:50;;;;;;;1.70;1.60;;;0.90;98.20;;;;;;4975512;28;20884;-76
2022/01/20 23:36:19;;;;;;;1.73;1.63;;;0.90;98.20;;;;;;4958990;28;20487;-72
2022/01/20 23:38:46;;;;;;;1.70;1.60;;;0.90;98.20;;;;;;4977785;28;20492;-74
2022/01/20 23:41:16;;;;;;;1.80;1.70;;;0.90;98.20;;;;;;4958717;28;20488;-72
2022/01/20 23:43:58;;;;;;;1.70;1.60;;;0.90;98.20;;;;;;4972505;28;20466;-75
2022/01/20 23:49:13;;;;;;;1.70;1.60;;;1.00;98.20;;;;;;4968011;28;20493;-73
2022/01/20 23:51:40;;;;;;;1.83;1.73;;;1.00;98.20;;;;;;4963142;28;20519;-71
2022/01/20 23:54:07;;;;;;;1.70;1.60;;;1.00;98.20;;;;;;4973923;28;20481;-72
2022/01/20 23:56:35;;;;;;;1.70;1.60;;;1.00;98.20;;;;;;4958587;28;20495;-70
2022/01/20 23:59:04;;;;;;;1.70;1.60;;;1.10;98.20;;;;;;4968892;28;20489;-70
